sensor_id;sensor_type;location;lat;lon;timestamp;pressure;altitude;pressure_sealevel;temperature;humidity
6028;BME280;3042;43.194;27.646;2023-02-17T00:00:11;102586.94;;;6.39;100.00
6028;BME280;3042;43.194;27.646;2023-02-17T00:02:39;102587.31;;;6.25;100.00
6028;BME280;3042;43.194;27.646;2023-02-17T00:05:06;102597.78;;;6.18;100.00
6028;BME280;3042;43.194;27.646;2023-02-17T00:07:33;102458.94;;;5.40;100.00
6028;BME280;3042;43.194;27.646;2023-02-17T00:10:00;102589.09;;;6.07;100.00
6028;BME280;3042;43.194;27.646;2023-02-17T00:12:27;102553.38;;;5.91;100.00
6028;BME280;3042;43.194;27.646;2023-02-17T00:14:54;102593.22;;;5.96;100.00
6028;BME280;3042;43.194;27.646;2023-02-17T00:17:22;102563.06;;;5.85;100.00
6028;BME280;3042;43.194;27.646;2023-02-17T00:19:52;102580.09;;;6.21;100.00
6028;BME280;3042;43.194;27.646;2023-02-17T00:22:19;102591.19;;;5.75;100.00
6028;BME280;3042;43.194;27.646;2023-02-17T00:25:04;102502.50;;;5.40;100.00
6028;BME280;3042;43.194;27.646;2023-02-17T00:27:31;102577.25;;;5.90;100.00
6028;BME280;3042;43.194;27.646;2023-02-17T00:29:58;102574.53;;;5.88;100.00
6028;BME280;3042;43.194;27.646;2023-02-17T00:32:26;102560.56;;;6.04;100.00
6028;BME280;3042;43.194;27.646;2023-02-17T00:34:53;102567.66;;;5.79;100.00
6028;BME280;3042;43.194;27.646;2023-02-17T00:37:22;102566.31;;;5.74;100.00
6028;BME280;3042;43.194;27.646;2023-02-17T00:39:50;102519.56;;;5.40;100.00
6028;BME280;3042;43.194;27.646;2023-02-17T00:42:17;102564.97;;;5.68;100.00
6028;BME280;3042;43.194;27.646;2023-02-17T00:44:43;102552.88;;;5.76;100.00
6028;BME280;3042;43.194;27.646;2023-02-17T00:47:10;102550.50;;;5.69;100.00
6028;BME280;3042;43.194;27.646;2023-02-17T00:49:39;102508.09;;;5.72;100.00
6028;BME280;3042;43.194;27.646;2023-02-17T00:52:06;102549.94;;;5.63;100.00
6028;BME280;3042;43.194;27.646;2023-02-17T00:54:33;102548.72;;;5.59;100.00
6028;BME280;3042;43.194;27.646;2023-02-17T00:57:00;102547.69;;;5.57;100.00
6028;BME280;3042;43.194;27.646;2023-02-17T00:59:27;102543.97;;;5.45;100.00
6028;BME280;3042;43.194;27.646;2023-02-17T01:01:54;102428.72;;;5.00;100.00
6028;BME280;3042;43.194;27.646;2023-02-17T01:04:21;102540.97;;;5.40;100.00
6028;BME280;3042;43.194;27.646;2023-02-17T01:06:49;102502.41;;;5.39;100.00
6028;BME280;3042;43.194;27.646;2023-02-17T01:09:16;102537.50;;;5.40;100.00
6028;BME280;3042;43.194;27.646;2023-02-17T01:11:43;102537.97;;;5.36;100.00
6028;BME280;3042;43.194;27.646;2023-02-17T01:14:12;102529.63;;;5.47;100.00
6028;BME280;3042;43.194;27.646;2023-02-17T01:16:43;102524.69;;;5.40;100.00
6028;BME280;3042;43.194;27.646;2023-02-17T01:19:12;102518.41;;;5.27;100.00
6028;BME280;3042;43.194;27.646;2023-02-17T01:21:40;102514.97;;;5.27;100.00
6028;BME280;3042;43.194;27.646;2023-02-17T01:24:09;102512.06;;;5.33;100.00
6028;BME280;3042;43.194;27.646;2023-02-17T01:26:37;102509.06;;;5.28;100.00
6028;BME280;3042;43.194;27.646;2023-02-17T01:29:06;102479.56;;;5.14;100.00
6028;BME280;3042;43.194;27.646;2023-02-17T01:31:33;102496.78;;;5.15;100.00
6028;BME280;3042;43.194;27.646;2023-02-17T01:34:02;102494.59;;;5.28;100.00
6028;BME280;3042;43.194;27.646;2023-02-17T01:36:30;102422.13;;;4.84;100.00
6028;BME280;3042;43.194;27.646;2023-02-17T01:38:57;102412.38;;;4.80;100.00
6028;BME280;3042;43.194;27.646;2023-02-17T01:41:26;102489.94;;;5.52;100.00
6028;BME280;3042;43.194;27.646;2023-02-17T01:44:09;102487.03;;;5.39;100.00
6028;BME280;3042;43.194;27.646;2023-02-17T01:46:38;102491.56;;;5.33;100.00
6028;BME280;3042;43.194;27.646;2023-02-17T01:49:14;102330.75;;;4.38;100.00
6028;BME280;3042;43.194;27.646;2023-02-17T01:51:44;102502.75;;;5.24;100.00
6028;BME280;3042;43.194;27.646;2023-02-17T01:54:16;102488.38;;;5.35;100.00
6028;BME280;3042;43.194;27.646;2023-02-17T01:56:48;102374.59;;;4.78;100.00
6028;BME280;3042;43.194;27.646;2023-02-17T01:59:17;102458.22;;;5.05;100.00
6028;BME280;3042;43.194;27.646;2023-02-17T02:01:46;102489.22;;;5.17;100.00
6028;BME280;3042;43.194;27.646;2023-02-17T02:04:14;102492.84;;;5.10;100.00
6028;BME280;3042;43.194;27.646;2023-02-17T02:06:45;102490.88;;;5.16;100.00
6028;BME280;3042;43.194;27.646;2023-02-17T02:09:17;102485.91;;;5.18;100.00
6028;BME280;3042;43.194;27.646;2023-02-17T02:11:48;102485.56;;;5.23;100.00
6028;BME280;3042;43.194;27.646;2023-02-17T02:14:16;102485.94;;;5.09;100.00
6028;BME280;3042;43.194;27.646;2023-02-17T02:16:49;102478.53;;;5.12;100.00
6028;BME280;3042;43.194;27.646;2023-02-17T02:19:44;102451.81;;;5.19;100.00
6028;BME280;3042;43.194;27.646;2023-02-17T02:22:47;102447.13;;;5.23;100.00
6028;BME280;3042;43.194;27.646;2023-02-17T02:25:32;102469.81;;;5.38;100.00
6028;BME280;3042;43.194;27.646;2023-02-17T02:28:18;102463.94;;;5.39;100.00
6028;BME280;3042;43.194;27.646;2023-02-17T02:31:14;102461.06;;;5.36;100.00
6028;BME280;3042;43.194;27.646;2023-02-17T02:33:49;102397.13;;;4.82;100.00
6028;BME280;3042;43.194;27.646;2023-02-17T02:36:20;102463.94;;;5.11;100.00
6028;BME280;3042;43.194;27.646;2023-02-17T02:39:03;102456.22;;;5.20;100.00
6028;BME280;3042;43.194;27.646;2023-02-17T02:41:36;102474.16;;;5.20;100.00
6028;BME280;3042;43.194;27.646;2023-02-17T02:44:06;102471.72;;;5.13;100.00
6028;BME280;3042;43.194;27.646;2023-02-17T02:46:34;102452.56;;;4.81;100.00
6028;BME280;3042;43.194;27.646;2023-02-17T02:49:02;102475.09;;;5.03;100.00
6028;BME280;3042;43.194;27.646;2023-02-17T02:51:42;102466.59;;;5.21;100.00
6028;BME280;3042;43.194;27.646;2023-02-17T02:54:31;102469.75;;;5.19;100.00
6028;BME280;3042;43.194;27.646;2023-02-17T02:57:12;102467.53;;;5.13;100.00
6028;BME280;3042;43.194;27.646;2023-02-17T02:59:50;102475.88;;;5.02;100.00
6028;BME280;3042;43.194;27.646;2023-02-17T03:02:22;102482.03;;;5.04;100.00
6028;BME280;3042;43.194;27.646;2023-02-17T03:04:57;102481.47;;;4.89;100.00
6028;BME280;3042;43.194;27.646;2023-02-17T03:07:33;102479.34;;;4.94;100.00
6028;BME280;3042;43.194;27.646;2023-02-17T03:10:04;102410.34;;;4.59;100.00
6028;BME280;3042;43.194;27.646;2023-02-17T03:12:32;102482.75;;;4.75;100.00
6028;BME280;3042;43.194;27.646;2023-02-17T03:15:02;102474.22;;;4.94;100.00
6028;BME280;3042;43.194;27.646;2023-02-17T03:17:31;102477.28;;;4.90;100.00
6028;BME280;3042;43.194;27.646;2023-02-17T03:19:59;102476.34;;;4.89;100.00
6028;BME280;3042;43.194;27.646;2023-02-17T03:22:31;102443.84;;;4.79;100.00
6028;BME280;3042;43.194;27.646;2023-02-17T03:24:59;102444.66;;;4.61;100.00
6028;BME280;3042;43.194;27.646;2023-02-17T03:27:28;102468.78;;;5.08;100.00
6028;BME280;3042;43.194;27.646;2023-02-17T03:29:55;102470.31;;;4.97;100.00
6028;BME280;3042;43.194;27.646;2023-02-17T03:32:22;102445.66;;;4.80;100.00
6028;BME280;3042;43.194;27.646;2023-02-17T03:34:49;102476.94;;;4.95;100.00
6028;BME280;3042;43.194;27.646;2023-02-17T03:37:16;102481.91;;;4.94;100.00
6028;BME280;3042;43.194;27.646;2023-02-17T03:39:43;102486.91;;;4.92;100.00
6028;BME280;3042;43.194;27.646;2023-02-17T03:42:10;102347.97;;;4.22;100.00
6028;BME280;3042;43.194;27.646;2023-02-17T03:44:39;102480.72;;;4.99;100.00
6028;BME280;3042;43.194;27.646;2023-02-17T03:47:06;102483.13;;;4.89;100.00
6028;BME280;3042;43.194;27.646;2023-02-17T03:49:33;102480.28;;;4.85;100.00
6028;BME280;3042;43.194;27.646;2023-02-17T03:52:00;102480.28;;;4.85;100.00
6028;BME280;3042;43.194;27.646;2023-02-17T03:54:27;102480.28;;;4.94;100.00
6028;BME280;3042;43.194;27.646;2023-02-17T03:56:54;102473.66;;;4.88;100.00
6028;BME280;3042;43.194;27.646;2023-02-17T03:59:21;102468.81;;;4.91;100.00
6028;BME280;3042;43.194;27.646;2023-02-17T04:01:49;102467.09;;;5.08;100.00
6028;BME280;3042;43.194;27.646;2023-02-17T04:04:16;102469.28;;;4.86;100.00
6028;BME280;3042;43.194;27.646;2023-02-17T04:06:43;102460.69;;;4.95;100.00
6028;BME280;3042;43.194;27.646;2023-02-17T04:09:10;102463.97;;;4.94;100.00
6028;BME280;3042;43.194;27.646;2023-02-17T04:11:37;102459.81;;;4.85;100.00
6028;BME280;3042;43.194;27.646;2023-02-17T04:14:04;102463.69;;;4.91;100.00
6028;BME280;3042;43.194;27.646;2023-02-17T04:16:31;102461.09;;;4.99;100.00
6028;BME280;3042;43.194;27.646;2023-02-17T04:19:00;102449.78;;;5.06;100.00
6028;BME280;3042;43.194;27.646;2023-02-17T04:21:27;102443.22;;;4.91;100.00
6028;BME280;3042;43.194;27.646;2023-02-17T04:23:54;102456.44;;;4.95;100.00
6028;BME280;3042;43.194;27.646;2023-02-17T04:26:21;102453.44;;;4.91;100.00
6028;BME280;3042;43.194;27.646;2023-02-17T04:28:48;102450.44;;;4.86;100.00
6028;BME280;3042;43.194;27.646;2023-02-17T04:31:15;102459.19;;;4.88;100.00
6028;BME280;3042;43.194;27.646;2023-02-17T04:33:42;102464.66;;;4.74;100.00
6028;BME280;3042;43.194;27.646;2023-02-17T04:36:10;102353.09;;;4.22;100.00
6028;BME280;3042;43.194;27.646;2023-02-17T04:38:38;102458.03;;;4.76;100.00
6028;BME280;3042;43.194;27.646;2023-02-17T04:41:05;102466.16;;;4.80;100.00
6028;BME280;3042;43.194;27.646;2023-02-17T04:43:32;102484.53;;;4.76;100.00
6028;BME280;3042;43.194;27.646;2023-02-17T04:45:59;102477.63;;;4.75;100.00
6028;BME280;3042;43.194;27.646;2023-02-17T04:48:26;102478.47;;;4.84;100.00
6028;BME280;3042;43.194;27.646;2023-02-17T04:50:54;102479.22;;;4.83;100.00
6028;BME280;3042;43.194;27.646;2023-02-17T04:53:22;102425.53;;;4.66;100.00
6028;BME280;3042;43.194;27.646;2023-02-17T04:55:51;102467.28;;;5.01;100.00
6028;BME280;3042;43.194;27.646;2023-02-17T04:58:18;102467.59;;;4.96;100.00
6028;BME280;3042;43.194;27.646;2023-02-17T05:00:46;102482.41;;;4.81;100.00
6028;BME280;3042;43.194;27.646;2023-02-17T05:03:14;102482.75;;;4.75;100.00
6028;BME280;3042;43.194;27.646;2023-02-17T05:05:41;102468.09;;;4.83;100.00
6028;BME280;3042;43.194;27.646;2023-02-17T05:08:08;102469.00;;;4.83;100.00
6028;BME280;3042;43.194;27.646;2023-02-17T05:10:36;102468.78;;;5.08;100.00
6028;BME280;3042;43.194;27.646;2023-02-17T05:13:03;102472.72;;;4.96;100.00
6028;BME280;3042;43.194;27.646;2023-02-17T05:15:30;102471.78;;;5.04;100.00
6028;BME280;3042;43.194;27.646;2023-02-17T05:17:57;102466.66;;;5.04;100.00
6028;BME280;3042;43.194;27.646;2023-02-17T05:20:24;102466.59;;;5.13;100.00
6028;BME280;3042;43.194;27.646;2023-02-17T05:22:51;102466.88;;;5.24;100.00
6028;BME280;3042;43.194;27.646;2023-02-17T05:25:18;102470.78;;;5.29;100.00
6028;BME280;3042;43.194;27.646;2023-02-17T05:27:47;102464.59;;;5.55;100.00
6028;BME280;3042;43.194;27.646;2023-02-17T05:30:14;102465.50;;;5.56;100.00
6028;BME280;3042;43.194;27.646;2023-02-17T05:32:41;102371.97;;;5.14;100.00
6028;BME280;3042;43.194;27.646;2023-02-17T05:35:08;102363.19;;;4.93;100.00
6028;BME280;3042;43.194;27.646;2023-02-17T05:37:35;102465.81;;;5.50;100.00
6028;BME280;3042;43.194;27.646;2023-02-17T05:40:03;102465.78;;;5.59;100.00
6028;BME280;3042;43.194;27.646;2023-02-17T05:42:30;102470.25;;;5.42;100.00
6028;BME280;3042;43.194;27.646;2023-02-17T05:44:58;102420.91;;;5.45;100.00
6028;BME280;3042;43.194;27.646;2023-02-17T05:47:25;102452.91;;;5.95;100.00
6028;BME280;3042;43.194;27.646;2023-02-17T05:49:52;102418.91;;;6.17;100.00
6028;BME280;3042;43.194;27.646;2023-02-17T05:52:19;102437.75;;;6.65;100.00
6028;BME280;3042;43.194;27.646;2023-02-17T05:54:46;102446.53;;;6.88;100.00
6028;BME280;3042;43.194;27.646;2023-02-17T05:57:13;102442.09;;;7.16;100.00
6028;BME280;3042;43.194;27.646;2023-02-17T05:59:40;102443.16;;;7.49;100.00
6028;BME280;3042;43.194;27.646;2023-02-17T06:02:09;102332.72;;;7.40;100.00
6028;BME280;3042;43.194;27.646;2023-02-17T06:04:36;102432.28;;;8.14;100.00
6028;BME280;3042;43.194;27.646;2023-02-17T06:07:03;102436.13;;;8.30;100.00
6028;BME280;3042;43.194;27.646;2023-02-17T06:09:30;102430.09;;;8.61;100.00
6028;BME280;3042;43.194;27.646;2023-02-17T06:11:57;102427.19;;;8.79;100.00
6028;BME280;3042;43.194;27.646;2023-02-17T06:14:24;102433.53;;;8.94;100.00
6028;BME280;3042;43.194;27.646;2023-02-17T06:16:51;102341.22;;;8.56;100.00
6028;BME280;3042;43.194;27.646;2023-02-17T06:19:22;102429.13;;;9.15;100.00
6028;BME280;3042;43.194;27.646;2023-02-17T06:21:49;102447.38;;;8.84;100.00
6028;BME280;3042;43.194;27.646;2023-02-17T06:24:17;102325.97;;;8.15;100.00
6028;BME280;3042;43.194;27.646;2023-02-17T06:26:43;102432.06;;;9.20;100.00
6028;BME280;3042;43.194;27.646;2023-02-17T06:29:12;102389.56;;;9.15;100.00
6028;BME280;3042;43.194;27.646;2023-02-17T06:31:40;102459.53;;;9.41;100.00
6028;BME280;3042;43.194;27.646;2023-02-17T06:34:07;102403.00;;;9.44;100.00
6028;BME280;3042;43.194;27.646;2023-02-17T06:36:36;102342.88;;;9.45;100.00
6028;BME280;3042;43.194;27.646;2023-02-17T06:39:03;102405.53;;;9.78;100.00
6028;BME280;3042;43.194;27.646;2023-02-17T06:41:30;102411.97;;;9.83;100.00
6028;BME280;3042;43.194;27.646;2023-02-17T06:43:57;102331.53;;;9.43;100.00
6028;BME280;3042;43.194;27.646;2023-02-17T06:46:24;102410.69;;;10.13;100.00
6028;BME280;3042;43.194;27.646;2023-02-17T06:48:51;102404.44;;;10.45;100.00
6028;BME280;3042;43.194;27.646;2023-02-17T06:51:18;102402.25;;;10.75;100.00
6028;BME280;3042;43.194;27.646;2023-02-17T06:53:46;102397.66;;;11.21;100.00
6028;BME280;3042;43.194;27.646;2023-02-17T06:56:13;102440.38;;;10.54;100.00
6028;BME280;3042;43.194;27.646;2023-02-17T06:58:40;102420.91;;;10.71;100.00
6028;BME280;3042;43.194;27.646;2023-02-17T07:01:15;102379.50;;;10.22;100.00
6028;BME280;3042;43.194;27.646;2023-02-17T07:03:42;102452.72;;;10.11;100.00
6028;BME280;3042;43.194;27.646;2023-02-17T07:06:09;102419.66;;;10.77;100.00
6028;BME280;3042;43.194;27.646;2023-02-17T07:08:38;102402.94;;;11.23;100.00
6028;BME280;3042;43.194;27.646;2023-02-17T07:11:07;102385.88;;;11.38;100.00
6028;BME280;3042;43.194;27.646;2023-02-17T07:13:34;102395.66;;;11.55;100.00
6028;BME280;3042;43.194;27.646;2023-02-17T07:16:02;102356.44;;;11.62;100.00
6028;BME280;3042;43.194;27.646;2023-02-17T07:18:29;102386.53;;;11.74;100.00
6028;BME280;3042;43.194;27.646;2023-02-17T07:20:59;102323.38;;;10.93;100.00
6028;BME280;3042;43.194;27.646;2023-02-17T07:23:26;102409.34;;;11.66;100.00
6028;BME280;3042;43.194;27.646;2023-02-17T07:25:53;102399.91;;;11.80;100.00
6028;BME280;3042;43.194;27.646;2023-02-17T07:28:22;102375.19;;;12.38;100.00
6028;BME280;3042;43.194;27.646;2023-02-17T07:30:49;102332.16;;;12.14;100.00
6028;BME280;3042;43.194;27.646;2023-02-17T07:33:16;102397.53;;;12.10;100.00
6028;BME280;3042;43.194;27.646;2023-02-17T07:35:43;102390.13;;;12.42;100.00
6028;BME280;3042;43.194;27.646;2023-02-17T07:38:10;102383.34;;;12.58;100.00
6028;BME280;3042;43.194;27.646;2023-02-17T07:40:38;102366.22;;;13.03;100.00
6028;BME280;3042;43.194;27.646;2023-02-17T07:43:05;102347.81;;;12.85;98.81
6028;BME280;3042;43.194;27.646;2023-02-17T07:45:34;102356.09;;;13.65;99.98
6028;BME280;3042;43.194;27.646;2023-02-17T07:48:01;102365.31;;;13.75;99.93
6028;BME280;3042;43.194;27.646;2023-02-17T07:50:28;102360.03;;;14.20;100.00
6028;BME280;3042;43.194;27.646;2023-02-17T07:52:55;102360.63;;;14.47;99.54
6028;BME280;3042;43.194;27.646;2023-02-17T07:55:22;102353.38;;;14.72;98.81
6028;BME280;3042;43.194;27.646;2023-02-17T07:57:49;102307.13;;;14.67;97.29
6028;BME280;3042;43.194;27.646;2023-02-17T08:00:17;102293.13;;;14.97;97.32
6028;BME280;3042;43.194;27.646;2023-02-17T08:02:46;102349.03;;;15.38;96.14
6028;BME280;3042;43.194;27.646;2023-02-17T08:05:13;102357.06;;;15.43;95.44
6028;BME280;3042;43.194;27.646;2023-02-17T08:07:42;102349.78;;;15.54;93.97
6028;BME280;3042;43.194;27.646;2023-02-17T08:10:11;102236.69;;;14.96;92.62
6028;BME280;3042;43.194;27.646;2023-02-17T08:12:56;102293.41;;;15.38;92.59
6028;BME280;3042;43.194;27.646;2023-02-17T08:15:40;102346.19;;;15.86;92.27
6028;BME280;3042;43.194;27.646;2023-02-17T08:18:10;102342.22;;;15.94;91.77
6028;BME280;3042;43.194;27.646;2023-02-17T08:20:39;102349.38;;;16.16;91.03
6028;BME280;3042;43.194;27.646;2023-02-17T08:23:07;102345.41;;;16.24;91.18
6028;BME280;3042;43.194;27.646;2023-02-17T08:25:34;102335.91;;;16.44;90.78
6028;BME280;3042;43.194;27.646;2023-02-17T08:28:03;102339.03;;;16.55;89.61
6028;BME280;3042;43.194;27.646;2023-02-17T08:30:30;102327.38;;;16.86;87.97
6028;BME280;3042;43.194;27.646;2023-02-17T08:32:57;102348.28;;;16.68;86.44
6028;BME280;3042;43.194;27.646;2023-02-17T08:35:29;102336.75;;;16.63;84.01
6028;BME280;3042;43.194;27.646;2023-02-17T08:37:58;102365.25;;;16.39;83.50
6028;BME280;3042;43.194;27.646;2023-02-17T08:40:30;102275.56;;;16.37;83.49
6028;BME280;3042;43.194;27.646;2023-02-17T08:42:57;102344.75;;;16.85;83.32
6028;BME280;3042;43.194;27.646;2023-02-17T08:45:24;102315.13;;;17.46;83.32
6028;BME280;3042;43.194;27.646;2023-02-17T08:47:51;102308.97;;;17.86;83.02
6028;BME280;3042;43.194;27.646;2023-02-17T08:50:19;102309.06;;;18.12;82.26
6028;BME280;3042;43.194;27.646;2023-02-17T08:52:47;102294.41;;;18.62;81.40
6028;BME280;3042;43.194;27.646;2023-02-17T08:55:14;102244.09;;;18.23;77.01
6028;BME280;3042;43.194;27.646;2023-02-17T08:57:43;102265.53;;;18.61;76.10
6028;BME280;3042;43.194;27.646;2023-02-17T09:00:11;102286.78;;;18.92;74.16
6028;BME280;3042;43.194;27.646;2023-02-17T09:02:38;102280.34;;;18.83;73.00
6028;BME280;3042;43.194;27.646;2023-02-17T09:05:08;102288.44;;;18.66;73.13
6028;BME280;3042;43.194;27.646;2023-02-17T09:07:38;102292.13;;;18.71;73.32
6028;BME280;3042;43.194;27.646;2023-02-17T09:10:11;102299.41;;;18.56;73.23
6028;BME280;3042;43.194;27.646;2023-02-17T09:12:38;102208.78;;;17.66;72.66
6028;BME280;3042;43.194;27.646;2023-02-17T09:15:06;102290.69;;;18.80;73.08
6028;BME280;3042;43.194;27.646;2023-02-17T09:17:37;102276.66;;;19.03;72.68
6028;BME280;3042;43.194;27.646;2023-02-17T09:20:06;102284.09;;;18.91;71.76
6028;BME280;3042;43.194;27.646;2023-02-17T09:22:34;102283.91;;;18.85;71.19
6028;BME280;3042;43.194;27.646;2023-02-17T09:25:01;102303.34;;;18.45;71.33
6028;BME280;3042;43.194;27.646;2023-02-17T09:27:29;102293.00;;;18.48;71.86
6028;BME280;3042;43.194;27.646;2023-02-17T09:29:57;102316.81;;;18.09;71.61
6028;BME280;3042;43.194;27.646;2023-02-17T09:32:24;102304.44;;;18.27;72.25
6028;BME280;3042;43.194;27.646;2023-02-17T09:34:51;102301.22;;;18.34;71.78
6028;BME280;3042;43.194;27.646;2023-02-17T09:37:19;102291.63;;;18.11;71.07
6028;BME280;3042;43.194;27.646;2023-02-17T09:39:47;102228.47;;;18.02;72.17
6028;BME280;3042;43.194;27.646;2023-02-17T09:42:17;102296.22;;;18.41;72.12
6028;BME280;3042;43.194;27.646;2023-02-17T09:44:50;102283.59;;;18.53;72.17
6028;BME280;3042;43.194;27.646;2023-02-17T09:47:21;102255.34;;;18.44;72.12
6028;BME280;3042;43.194;27.646;2023-02-17T09:49:52;102276.88;;;18.61;72.00
6028;BME280;3042;43.194;27.646;2023-02-17T09:52:26;102195.28;;;18.49;71.64
6028;BME280;3042;43.194;27.646;2023-02-17T09:55:02;102256.63;;;19.05;71.72
6028;BME280;3042;43.194;27.646;2023-02-17T09:57:34;102250.25;;;19.23;71.74
6028;BME280;3042;43.194;27.646;2023-02-17T10:00:08;102225.03;;;19.53;69.20
6028;BME280;3042;43.194;27.646;2023-02-17T10:02:46;102215.31;;;19.78;68.43
6028;BME280;3042;43.194;27.646;2023-02-17T10:05:21;102211.94;;;19.82;67.14
6028;BME280;3042;43.194;27.646;2023-02-17T10:07:52;102208.94;;;19.98;65.99
6028;BME280;3042;43.194;27.646;2023-02-17T10:10:23;102207.91;;;19.93;66.40
6028;BME280;3042;43.194;27.646;2023-02-17T10:12:54;102192.44;;;20.02;65.40
6028;BME280;3042;43.194;27.646;2023-02-17T10:15:25;102181.13;;;20.37;65.61
6028;BME280;3042;43.194;27.646;2023-02-17T10:17:59;102189.41;;;20.19;64.81
6028;BME280;3042;43.194;27.646;2023-02-17T10:20:32;102183.13;;;20.14;64.87
6028;BME280;3042;43.194;27.646;2023-02-17T10:23:03;102171.34;;;20.31;64.75
6028;BME280;3042;43.194;27.646;2023-02-17T10:25:47;102108.63;;;20.42;64.38
6028;BME280;3042;43.194;27.646;2023-02-17T10:28:21;102155.28;;;20.85;63.93
6028;BME280;3042;43.194;27.646;2023-02-17T10:31:01;102159.94;;;20.61;63.41
6028;BME280;3042;43.194;27.646;2023-02-17T10:33:34;102163.31;;;20.57;63.26
6028;BME280;3042;43.194;27.646;2023-02-17T10:36:10;102146.41;;;20.80;63.52
6028;BME280;3042;43.194;27.646;2023-02-17T10:38:47;102154.97;;;20.73;62.75
6028;BME280;3042;43.194;27.646;2023-02-17T10:41:18;102112.09;;;20.74;62.34
6028;BME280;3042;43.194;27.646;2023-02-17T10:43:46;102131.53;;;21.17;61.69
6028;BME280;3042;43.194;27.646;2023-02-17T10:46:18;102124.06;;;21.36;62.05
6028;BME280;3042;43.194;27.646;2023-02-17T10:48:49;102136.28;;;21.35;60.69
6028;BME280;3042;43.194;27.646;2023-02-17T10:51:22;102147.25;;;21.14;60.79
6028;BME280;3042;43.194;27.646;2023-02-17T10:53:55;102083.06;;;20.68;60.84
6028;BME280;3042;43.194;27.646;2023-02-17T10:56:27;102127.25;;;21.22;61.11
6028;BME280;3042;43.194;27.646;2023-02-17T10:59:02;102017.81;;;20.86;60.35
6028;BME280;3042;43.194;27.646;2023-02-17T11:01:33;102125.91;;;21.02;60.01
6028;BME280;3042;43.194;27.646;2023-02-17T11:04:04;102134.41;;;20.92;60.07
6028;BME280;3042;43.194;27.646;2023-02-17T11:06:36;102131.88;;;20.60;59.09
6028;BME280;3042;43.194;27.646;2023-02-17T11:09:04;102066.72;;;19.80;59.25
6028;BME280;3042;43.194;27.646;2023-02-17T11:11:35;101837.16;;;18.66;59.92
6028;BME280;3042;43.194;27.646;2023-02-17T11:14:11;102137.22;;;20.63;60.36
6028;BME280;3042;43.194;27.646;2023-02-17T11:16:43;102134.63;;;20.64;59.48
6028;BME280;3042;43.194;27.646;2023-02-17T11:19:21;102139.84;;;20.63;60.70
6028;BME280;3042;43.194;27.646;2023-02-17T11:21:49;101973.38;;;19.56;60.42
6028;BME280;3042;43.194;27.646;2023-02-17T11:24:17;102130.03;;;20.56;59.91
6028;BME280;3042;43.194;27.646;2023-02-17T11:26:54;102116.84;;;20.91;60.10
6028;BME280;3042;43.194;27.646;2023-02-17T11:29:22;102110.88;;;20.96;59.58
6028;BME280;3042;43.194;27.646;2023-02-17T11:31:56;102107.72;;;21.11;58.80
6028;BME280;3042;43.194;27.646;2023-02-17T11:34:26;102116.63;;;20.80;58.22
6028;BME280;3042;43.194;27.646;2023-02-17T11:36:59;102104.81;;;20.99;58.45
6028;BME280;3042;43.194;27.646;2023-02-17T11:39:26;102011.38;;;20.37;58.10
6028;BME280;3042;43.194;27.646;2023-02-17T11:41:53;102105.63;;;20.96;57.71
6028;BME280;3042;43.194;27.646;2023-02-17T11:44:25;102061.63;;;20.87;57.02
6028;BME280;3042;43.194;27.646;2023-02-17T11:47:05;102096.06;;;21.00;56.68
6028;BME280;3042;43.194;27.646;2023-02-17T11:53:06;101970.72;;;20.21;56.91
6028;BME280;3042;43.194;27.646;2023-02-17T11:55:47;102067.75;;;21.26;57.26
6028;BME280;3042;43.194;27.646;2023-02-17T11:58:26;102060.94;;;21.36;56.46
6028;BME280;3042;43.194;27.646;2023-02-17T12:01:02;102058.03;;;21.23;55.97
6028;BME280;3042;43.194;27.646;2023-02-17T12:06:59;102050.38;;;21.34;56.72
6028;BME280;3042;43.194;27.646;2023-02-17T12:09:35;102036.88;;;21.58;56.92
6028;BME280;3042;43.194;27.646;2023-02-17T12:12:15;102009.13;;;21.32;56.38
6028;BME280;3042;43.194;27.646;2023-02-17T12:14:54;102003.34;;;21.05;56.18
6028;BME280;3042;43.194;27.646;2023-02-17T12:17:34;102043.91;;;21.18;56.39
6028;BME280;3042;43.194;27.646;2023-02-17T12:20:07;102020.09;;;21.11;56.79
6028;BME280;3042;43.194;27.646;2023-02-17T12:22:51;102027.63;;;21.36;56.75
6028;BME280;3042;43.194;27.646;2023-02-17T12:25:26;102020.25;;;21.59;56.51
6028;BME280;3042;43.194;27.646;2023-02-17T12:28:21;102026.25;;;21.52;56.07
6028;BME280;3042;43.194;27.646;2023-02-17T12:31:00;102021.97;;;21.57;57.04
6028;BME280;3042;43.194;27.646;2023-02-17T12:33:48;101944.69;;;21.08;57.12
6028;BME280;3042;43.194;27.646;2023-02-17T12:36:18;101957.00;;;21.11;58.77
6028;BME280;3042;43.194;27.646;2023-02-17T12:38:50;101968.38;;;21.54;57.96
6028;BME280;3042;43.194;27.646;2023-02-17T12:41:22;102025.91;;;21.81;57.38
6028;BME280;3042;43.194;27.646;2023-02-17T12:43:53;102032.72;;;21.69;57.88
6028;BME280;3042;43.194;27.646;2023-02-17T12:46:24;101999.72;;;21.87;58.23
6028;BME280;3042;43.194;27.646;2023-02-17T12:48:55;101923.53;;;21.46;57.81
6028;BME280;3042;43.194;27.646;2023-02-17T12:51:26;102024.88;;;22.20;58.17
6028;BME280;3042;43.194;27.646;2023-02-17T12:53:59;101859.97;;;21.21;57.35
6028;BME280;3042;43.194;27.646;2023-02-17T12:56:57;102003.75;;;22.71;56.26
6028;BME280;3042;43.194;27.646;2023-02-17T12:59:30;101935.44;;;22.26;56.52
6028;BME280;3042;43.194;27.646;2023-02-17T13:02:00;102006.31;;;22.68;56.61
6028;BME280;3042;43.194;27.646;2023-02-17T13:04:29;101973.09;;;22.78;56.65
6028;BME280;3042;43.194;27.646;2023-02-17T13:07:25;101937.84;;;22.70;56.73
6028;BME280;3042;43.194;27.646;2023-02-17T13:09:58;102023.72;;;22.55;57.18
6028;BME280;3042;43.194;27.646;2023-02-17T13:12:35;102006.00;;;22.45;56.87
6028;BME280;3042;43.194;27.646;2023-02-17T13:15:10;102007.53;;;22.92;57.20
6028;BME280;3042;43.194;27.646;2023-02-17T13:17:55;102001.47;;;22.97;56.27
6028;BME280;3042;43.194;27.646;2023-02-17T13:23:31;101840.72;;;22.30;55.25
6028;BME280;3042;43.194;27.646;2023-02-17T13:26:13;101904.03;;;23.05;55.45